sensor_id;sensor_type;location;lat;lon;timestamp;P1;durP1;ratioP1;P2;durP2;ratioP2
22687;SDS011;11511;51.514;7.080;2022-12-07T00:02:38;46.10;;;27.48;;
22687;SDS011;11511;51.514;7.080;2022-12-07T00:05:18;45.72;;;27.35;;
22687;SDS011;11511;51.514;7.080;2022-12-07T00:07:50;43.53;;;27.05;;
22687;SDS011;11511;51.514;7.080;2022-12-07T00:13:56;44.30;;;27.20;;
22687;SDS011;11511;51.514;7.080;2022-12-07T00:17:25;46.55;;;26.50;;
22687;SDS011;11511;51.514;7.080;2022-12-07T00:20:24;43.90;;;27.00;;
22687;SDS011;11511;51.514;7.080;2022-12-07T00:22:54;45.40;;;27.60;;
22687;SDS011;11511;51.514;7.080;2022-12-07T00:25:21;47.20;;;27.75;;
22687;SDS011;11511;51.514;7.080;2022-12-07T00:27:48;46.30;;;27.77;;
22687;SDS011;11511;51.514;7.080;2022-12-07T00:30:19;43.55;;;26.73;;
22687;SDS011;11511;51.514;7.080;2022-12-07T00:32:53;40.08;;;26.00;;
22687;SDS011;11511;51.514;7.080;2022-12-07T00:35:25;42.95;;;26.65;;
22687;SDS011;11511;51.514;7.080;2022-12-07T00:38:04;39.47;;;26.58;;
22687;SDS011;11511;51.514;7.080;2022-12-07T00:40:37;44.13;;;26.30;;
22687;SDS011;11511;51.514;7.080;2022-12-07T00:43:13;43.13;;;25.90;;
22687;SDS011;11511;51.514;7.080;2022-12-07T00:45:51;42.00;;;25.30;;
22687;SDS011;11511;51.514;7.080;2022-12-07T00:48:22;45.35;;;26.30;;
22687;SDS011;11511;51.514;7.080;2022-12-07T00:50:50;43.38;;;26.67;;
22687;SDS011;11511;51.514;7.080;2022-12-07T00:53:17;39.20;;;26.30;;
22687;SDS011;11511;51.514;7.080;2022-12-07T00:55:47;43.85;;;26.95;;
22687;SDS011;11511;51.514;7.080;2022-12-07T00:58:19;40.45;;;27.17;;
22687;SDS011;11511;51.514;7.080;2022-12-07T01:00:46;41.00;;;26.73;;
22687;SDS011;11511;51.514;7.080;2022-12-07T01:03:19;38.30;;;26.17;;
22687;SDS011;11511;51.514;7.080;2022-12-07T01:05:50;39.65;;;26.95;;
22687;SDS011;11511;51.514;7.080;2022-12-07T01:08:46;43.80;;;28.30;;
22687;SDS011;11511;51.514;7.080;2022-12-07T01:11:43;41.25;;;28.17;;
22687;SDS011;11511;51.514;7.080;2022-12-07T01:14:14;44.67;;;29.35;;
22687;SDS011;11511;51.514;7.080;2022-12-07T01:19:18;43.60;;;29.48;;
22687;SDS011;11511;51.514;7.080;2022-12-07T01:21:45;44.30;;;29.83;;
22687;SDS011;11511;51.514;7.080;2022-12-07T01:24:17;45.13;;;30.00;;
22687;SDS011;11511;51.514;7.080;2022-12-07T01:26:44;43.20;;;29.88;;
22687;SDS011;11511;51.514;7.080;2022-12-07T01:29:14;44.78;;;30.85;;
22687;SDS011;11511;51.514;7.080;2022-12-07T01:31:47;42.05;;;30.02;;
22687;SDS011;11511;51.514;7.080;2022-12-07T01:34:18;48.15;;;29.80;;
22687;SDS011;11511;51.514;7.080;2022-12-07T01:36:56;43.55;;;29.38;;
22687;SDS011;11511;51.514;7.080;2022-12-07T01:39:26;44.50;;;30.73;;
22687;SDS011;11511;51.514;7.080;2022-12-07T01:41:57;43.75;;;28.50;;
22687;SDS011;11511;51.514;7.080;2022-12-07T01:47:59;45.47;;;30.15;;
22687;SDS011;11511;51.514;7.080;2022-12-07T01:50:31;46.33;;;30.98;;
22687;SDS011;11511;51.514;7.080;2022-12-07T01:52:58;48.55;;;30.52;;
22687;SDS011;11511;51.514;7.080;2022-12-07T01:58:04;49.25;;;30.27;;
22687;SDS011;11511;51.514;7.080;2022-12-07T02:00:31;48.42;;;31.10;;
22687;SDS011;11511;51.514;7.080;2022-12-07T02:03:04;49.25;;;31.20;;
22687;SDS011;11511;51.514;7.080;2022-12-07T03:16:25;55.72;;;33.67;;
22687;SDS011;11511;51.514;7.080;2022-12-07T03:19:20;53.35;;;31.77;;
22687;SDS011;11511;51.514;7.080;2022-12-07T03:21:56;53.55;;;31.77;;
22687;SDS011;11511;51.514;7.080;2022-12-07T03:27:21;53.67;;;33.28;;
22687;SDS011;11511;51.514;7.080;2022-12-07T03:30:03;54.75;;;33.40;;
22687;SDS011;11511;51.514;7.080;2022-12-07T03:36:29;61.33;;;33.13;;
22687;SDS011;11511;51.514;7.080;2022-12-07T03:38:39;54.88;;;32.53;;
22687;SDS011;11511;51.514;7.080;2022-12-07T03:41:17;54.20;;;32.65;;
22687;SDS011;11511;51.514;7.080;2022-12-07T03:43:49;61.00;;;34.03;;
22687;SDS011;11511;51.514;7.080;2022-12-07T03:49:03;67.45;;;35.05;;
22687;SDS011;11511;51.514;7.080;2022-12-07T03:52:12;63.72;;;34.95;;
22687;SDS011;11511;51.514;7.080;2022-12-07T03:58:04;69.43;;;35.92;;
22687;SDS011;11511;51.514;7.080;2022-12-07T04:00:57;72.10;;;36.65;;
22687;SDS011;11511;51.514;7.080;2022-12-07T04:03:37;72.70;;;36.75;;
22687;SDS011;11511;51.514;7.080;2022-12-07T04:06:08;74.13;;;37.67;;
22687;SDS011;11511;51.514;7.080;2022-12-07T04:08:39;69.10;;;37.90;;
22687;SDS011;11511;51.514;7.080;2022-12-07T04:11:09;71.50;;;36.97;;
22687;SDS011;11511;51.514;7.080;2022-12-07T04:13:36;75.53;;;39.63;;
22687;SDS011;11511;51.514;7.080;2022-12-07T04:16:36;77.93;;;40.10;;
22687;SDS011;11511;51.514;7.080;2022-12-07T04:19:12;81.97;;;40.85;;
22687;SDS011;11511;51.514;7.080;2022-12-07T04:21:55;77.93;;;40.67;;
22687;SDS011;11511;51.514;7.080;2022-12-07T04:24:42;72.68;;;39.20;;
22687;SDS011;11511;51.514;7.080;2022-12-07T04:27:14;81.75;;;40.63;;
22687;SDS011;11511;51.514;7.080;2022-12-07T04:29:49;83.10;;;39.13;;
22687;SDS011;11511;51.514;7.080;2022-12-07T04:32:23;78.82;;;38.88;;
22687;SDS011;11511;51.514;7.080;2022-12-07T04:34:51;71.38;;;39.08;;
22687;SDS011;11511;51.514;7.080;2022-12-07T04:37:25;74.93;;;39.25;;
22687;SDS011;11511;51.514;7.080;2022-12-07T04:39:53;77.60;;;38.45;;
22687;SDS011;11511;51.514;7.080;2022-12-07T04:42:27;78.45;;;39.67;;
22687;SDS011;11511;51.514;7.080;2022-12-07T04:44:57;87.35;;;40.92;;
22687;SDS011;11511;51.514;7.080;2022-12-07T04:47:32;87.32;;;39.30;;
22687;SDS011;11511;51.514;7.080;2022-12-07T04:50:02;79.03;;;38.00;;
22687;SDS011;11511;51.514;7.080;2022-12-07T04:52:29;81.70;;;39.80;;
22687;SDS011;11511;51.514;7.080;2022-12-07T04:54:59;86.38;;;42.00;;
22687;SDS011;11511;51.514;7.080;2022-12-07T04:57:29;79.13;;;39.38;;
22687;SDS011;11511;51.514;7.080;2022-12-07T05:00:03;83.82;;;40.88;;
22687;SDS011;11511;51.514;7.080;2022-12-07T05:02:31;84.13;;;36.85;;
22687;SDS011;11511;51.514;7.080;2022-12-07T05:05:00;87.50;;;39.40;;
22687;SDS011;11511;51.514;7.080;2022-12-07T05:07:37;78.43;;;39.00;;
22687;SDS011;11511;51.514;7.080;2022-12-07T05:10:20;80.07;;;39.03;;
22687;SDS011;11511;51.514;7.080;2022-12-07T05:12:58;84.88;;;40.13;;
22687;SDS011;11511;51.514;7.080;2022-12-07T05:15:27;87.90;;;41.22;;
22687;SDS011;11511;51.514;7.080;2022-12-07T05:20:43;80.80;;;38.05;;
22687;SDS011;11511;51.514;7.080;2022-12-07T05:23:11;84.57;;;40.47;;
22687;SDS011;11511;51.514;7.080;2022-12-07T05:25:38;77.95;;;38.33;;
22687;SDS011;11511;51.514;7.080;2022-12-07T05:28:21;84.22;;;39.63;;
22687;SDS011;11511;51.514;7.080;2022-12-07T05:31:00;82.05;;;39.95;;
22687;SDS011;11511;51.514;7.080;2022-12-07T05:33:31;82.78;;;40.53;;
22687;SDS011;11511;51.514;7.080;2022-12-07T05:36:41;83.85;;;39.65;;
22687;SDS011;11511;51.514;7.080;2022-12-07T05:39:16;83.22;;;39.72;;
22687;SDS011;11511;51.514;7.080;2022-12-07T05:41:45;87.47;;;40.00;;
22687;SDS011;11511;51.514;7.080;2022-12-07T05:44:43;84.03;;;37.97;;
22687;SDS011;11511;51.514;7.080;2022-12-07T05:47:41;87.82;;;39.10;;
22687;SDS011;11511;51.514;7.080;2022-12-07T05:50:15;75.90;;;37.97;;
22687;SDS011;11511;51.514;7.080;2022-12-07T05:53:12;81.63;;;38.42;;
22687;SDS011;11511;51.514;7.080;2022-12-07T05:55:51;78.53;;;38.60;;
22687;SDS011;11511;51.514;7.080;2022-12-07T05:58:22;84.28;;;37.03;;
22687;SDS011;11511;51.514;7.080;2022-12-07T06:01:21;86.15;;;37.75;;
22687;SDS011;11511;51.514;7.080;2022-12-07T06:04:04;84.97;;;37.80;;
22687;SDS011;11511;51.514;7.080;2022-12-07T06:06:47;76.13;;;37.13;;
22687;SDS011;11511;51.514;7.080;2022-12-07T06:09:44;75.50;;;35.83;;
22687;SDS011;11511;51.514;7.080;2022-12-07T06:13:21;76.70;;;35.83;;
22687;SDS011;11511;51.514;7.080;2022-12-07T06:16:04;75.68;;;35.17;;
22687;SDS011;11511;51.514;7.080;2022-12-07T06:19:50;75.57;;;35.15;;
22687;SDS011;11511;51.514;7.080;2022-12-07T06:23:00;74.38;;;35.55;;
22687;SDS011;11511;51.514;7.080;2022-12-07T06:38:18;65.47;;;32.90;;
22687;SDS011;11511;51.514;7.080;2022-12-07T06:41:14;69.50;;;34.00;;
22687;SDS011;11511;51.514;7.080;2022-12-07T06:44:04;69.35;;;35.10;;
22687;SDS011;11511;51.514;7.080;2022-12-07T06:46:48;63.05;;;33.22;;
22687;SDS011;11511;51.514;7.080;2022-12-07T06:50:06;74.35;;;33.65;;
22687;SDS011;11511;51.514;7.080;2022-12-07T06:53:11;71.70;;;31.92;;
22687;SDS011;11511;51.514;7.080;2022-12-07T06:55:57;64.05;;;31.92;;
22687;SDS011;11511;51.514;7.080;2022-12-07T06:58:25;69.55;;;31.10;;
22687;SDS011;11511;51.514;7.080;2022-12-07T07:01:00;64.00;;;31.30;;
22687;SDS011;11511;51.514;7.080;2022-12-07T07:03:51;62.70;;;30.88;;
22687;SDS011;11511;51.514;7.080;2022-12-07T07:06:50;67.13;;;31.13;;
22687;SDS011;11511;51.514;7.080;2022-12-07T07:10:16;63.90;;;29.90;;
22687;SDS011;11511;51.514;7.080;2022-12-07T07:13:40;58.70;;;29.45;;
22687;SDS011;11511;51.514;7.080;2022-12-07T07:16:17;66.97;;;29.50;;
22687;SDS011;11511;51.514;7.080;2022-12-07T07:18:45;68.90;;;30.15;;
22687;SDS011;11511;51.514;7.080;2022-12-07T07:21:14;67.95;;;28.58;;
22687;SDS011;11511;51.514;7.080;2022-12-07T07:23:42;57.65;;;27.48;;
22687;SDS011;11511;51.514;7.080;2022-12-07T07:26:10;60.72;;;28.90;;
22687;SDS011;11511;51.514;7.080;2022-12-07T07:28:37;57.10;;;26.88;;
22687;SDS011;11511;51.514;7.080;2022-12-07T07:31:09;61.60;;;28.42;;
22687;SDS011;11511;51.514;7.080;2022-12-07T07:33:45;55.90;;;28.30;;
22687;SDS011;11511;51.514;7.080;2022-12-07T07:36:14;54.33;;;28.70;;
22687;SDS011;11511;51.514;7.080;2022-12-07T07:38:50;54.88;;;26.83;;
22687;SDS011;11511;51.514;7.080;2022-12-07T07:41:20;53.75;;;27.27;;
22687;SDS011;11511;51.514;7.080;2022-12-07T07:43:52;59.85;;;27.98;;
22687;SDS011;11511;51.514;7.080;2022-12-07T07:46:19;55.03;;;27.13;;
22687;SDS011;11511;51.514;7.080;2022-12-07T07:48:49;58.33;;;25.80;;
22687;SDS011;11511;51.514;7.080;2022-12-07T07:55:35;51.72;;;24.60;;
22687;SDS011;11511;51.514;7.080;2022-12-07T08:01:44;51.95;;;24.17;;
22687;SDS011;11511;51.514;7.080;2022-12-07T08:05:29;52.20;;;24.45;;
22687;SDS011;11511;51.514;7.080;2022-12-07T08:08:29;58.22;;;24.50;;
22687;SDS011;11511;51.514;7.080;2022-12-07T08:11:04;59.15;;;24.17;;
22687;SDS011;11511;51.514;7.080;2022-12-07T08:13:35;54.28;;;25.88;;
22687;SDS011;11511;51.514;7.080;2022-12-07T08:16:09;59.45;;;25.15;;
22687;SDS011;11511;51.514;7.080;2022-12-07T08:18:41;57.40;;;25.05;;
22687;SDS011;11511;51.514;7.080;2022-12-07T08:21:11;54.53;;;26.38;;
22687;SDS011;11511;51.514;7.080;2022-12-07T08:23:40;56.25;;;24.25;;
22687;SDS011;11511;51.514;7.080;2022-12-07T08:26:20;57.08;;;23.77;;
22687;SDS011;11511;51.514;7.080;2022-12-07T08:28:55;45.05;;;22.45;;
22687;SDS011;11511;51.514;7.080;2022-12-07T08:31:22;45.28;;;22.55;;
22687;SDS011;11511;51.514;7.080;2022-12-07T08:34:00;47.13;;;23.38;;
22687;SDS011;11511;51.514;7.080;2022-12-07T08:36:33;40.78;;;21.33;;
22687;SDS011;11511;51.514;7.080;2022-12-07T08:39:01;45.17;;;21.33;;
22687;SDS011;11511;51.514;7.080;2022-12-07T08:41:27;45.00;;;22.15;;
22687;SDS011;11511;51.514;7.080;2022-12-07T08:44:03;44.05;;;19.30;;
22687;SDS011;11511;51.514;7.080;2022-12-07T08:49:08;30.80;;;18.05;;
22687;SDS011;11511;51.514;7.080;2022-12-07T08:51:48;37.38;;;18.17;;
22687;SDS011;11511;51.514;7.080;2022-12-07T08:54:18;33.83;;;17.77;;
22687;SDS011;11511;51.514;7.080;2022-12-07T08:57:24;31.05;;;16.58;;
22687;SDS011;11511;51.514;7.080;2022-12-07T08:59:52;29.38;;;15.93;;
22687;SDS011;11511;51.514;7.080;2022-12-07T09:02:33;31.83;;;16.73;;
22687;SDS011;11511;51.514;7.080;2022-12-07T09:05:06;31.90;;;16.23;;
22687;SDS011;11511;51.514;7.080;2022-12-07T09:07:44;30.52;;;16.95;;
22687;SDS011;11511;51.514;7.080;2022-12-07T09:10:30;34.63;;;17.40;;
22687;SDS011;11511;51.514;7.080;2022-12-07T09:13:14;28.05;;;15.82;;
22687;SDS011;11511;51.514;7.080;2022-12-07T09:19:55;27.58;;;14.75;;
22687;SDS011;11511;51.514;7.080;2022-12-07T09:23:05;23.88;;;14.13;;
22687;SDS011;11511;51.514;7.080;2022-12-07T09:25:35;22.02;;;12.65;;
22687;SDS011;11511;51.514;7.080;2022-12-07T09:28:03;27.10;;;11.25;;
22687;SDS011;11511;51.514;7.080;2022-12-07T09:30:33;24.50;;;11.50;;
22687;SDS011;11511;51.514;7.080;2022-12-07T09:33:02;18.05;;;9.95;;
22687;SDS011;11511;51.514;7.080;2022-12-07T09:35:31;17.17;;;9.65;;
22687;SDS011;11511;51.514;7.080;2022-12-07T09:38:01;15.35;;;8.88;;
22687;SDS011;11511;51.514;7.080;2022-12-07T09:40:33;18.13;;;8.57;;
22687;SDS011;11511;51.514;7.080;2022-12-07T09:43:19;12.23;;;7.97;;
22687;SDS011;11511;51.514;7.080;2022-12-07T09:46:00;15.38;;;7.97;;
22687;SDS011;11511;51.514;7.080;2022-12-07T09:49:00;13.40;;;7.40;;
22687;SDS011;11511;51.514;7.080;2022-12-07T09:51:31;14.68;;;7.97;;
22687;SDS011;11511;51.514;7.080;2022-12-07T09:54:08;17.90;;;8.52;;
22687;SDS011;11511;51.514;7.080;2022-12-07T09:59:41;15.65;;;6.90;;
22687;SDS011;11511;51.514;7.080;2022-12-07T10:02:27;14.75;;;7.57;;
22687;SDS011;11511;51.514;7.080;2022-12-07T10:05:46;14.15;;;7.03;;
22687;SDS011;11511;51.514;7.080;2022-12-07T10:08:55;13.80;;;6.93;;
22687;SDS011;11511;51.514;7.080;2022-12-07T10:16:30;15.63;;;6.65;;
22687;SDS011;11511;51.514;7.080;2022-12-07T10:23:13;14.63;;;6.35;;
22687;SDS011;11511;51.514;7.080;2022-12-07T10:25:49;13.60;;;6.00;;
22687;SDS011;11511;51.514;7.080;2022-12-07T10:30:06;13.80;;;6.72;;
22687;SDS011;11511;51.514;7.080;2022-12-07T10:39:16;13.00;;;6.20;;
22687;SDS011;11511;51.514;7.080;2022-12-07T10:48:12;14.60;;;5.60;;
22687;SDS011;11511;51.514;7.080;2022-12-07T11:18:35;10.65;;;4.75;;
22687;SDS011;11511;51.514;7.080;2022-12-07T11:21:32;12.45;;;5.43;;
22687;SDS011;11511;51.514;7.080;2022-12-07T11:27:37;11.68;;;5.60;;
22687;SDS011;11511;51.514;7.080;2022-12-07T11:51:36;10.50;;;3.78;;
22687;SDS011;11511;51.514;7.080;2022-12-07T11:54:14;7.50;;;3.55;;
22687;SDS011;11511;51.514;7.080;2022-12-07T11:57:07;7.85;;;3.53;;
22687;SDS011;11511;51.514;7.080;2022-12-07T11:59:49;10.20;;;4.00;;
22687;SDS011;11511;51.514;7.080;2022-12-07T12:02:24;9.85;;;3.10;;
22687;SDS011;11511;51.514;7.080;2022-12-07T12:05:26;8.30;;;3.35;;
22687;SDS011;11511;51.514;7.080;2022-12-07T12:08:03;4.38;;;2.50;;
22687;SDS011;11511;51.514;7.080;2022-12-07T12:19:36;6.40;;;2.75;;
22687;SDS011;11511;51.514;7.080;2022-12-07T12:27:33;5.82;;;2.17;;
22687;SDS011;11511;51.514;7.080;2022-12-07T12:52:01;7.90;;;2.58;;
22687;SDS011;11511;51.514;7.080;2022-12-07T12:57:42;9.57;;;2.88;;
22687;SDS011;11511;51.514;7.080;2022-12-07T13:00:19;7.78;;;3.03;;
22687;SDS011;11511;51.514;7.080;2022-12-07T13:02:55;6.57;;;3.08;;
22687;SDS011;11511;51.514;7.080;2022-12-07T13:09:41;10.95;;;3.08;;
22687;SDS011;11511;51.514;7.080;2022-12-07T13:31:47;11.00;;;3.92;;
22687;SDS011;11511;51.514;7.080;2022-12-07T13:40:15;9.60;;;3.60;;
22687;SDS011;11511;51.514;7.080;2022-12-07T13:42:58;7.32;;;3.22;;
22687;SDS011;11511;51.514;7.080;2022-12-07T13:45:26;7.82;;;3.10;;
22687;SDS011;11511;51.514;7.080;2022-12-07T13:48:35;11.40;;;3.45;;
22687;SDS011;11511;51.514;7.080;2022-12-07T13:51:25;8.40;;;2.53;;
22687;SDS011;11511;51.514;7.080;2022-12-07T13:57:25;9.18;;;2.10;;
22687;SDS011;11511;51.514;7.080;2022-12-07T14:00:03;7.05;;;1.98;;
22687;SDS011;11511;51.514;7.080;2022-12-07T14:02:32;5.43;;;2.20;;
22687;SDS011;11511;51.514;7.080;2022-12-07T14:23:02;11.77;;;4.28;;
22687;SDS011;11511;51.514;7.080;2022-12-07T14:25:47;11.55;;;4.32;;
22687;SDS011;11511;51.514;7.080;2022-12-07T14:28:25;10.52;;;4.72;;
22687;SDS011;11511;51.514;7.080;2022-12-07T14:30:55;12.23;;;4.75;;
22687;SDS011;11511;51.514;7.080;2022-12-07T14:33:25;12.80;;;4.85;;
22687;SDS011;11511;51.514;7.080;2022-12-07T14:36:06;9.90;;;4.88;;
22687;SDS011;11511;51.514;7.080;2022-12-07T14:39:34;12.05;;;4.75;;
22687;SDS011;11511;51.514;7.080;2022-12-07T14:42:37;12.23;;;4.97;;
22687;SDS011;11511;51.514;7.080;2022-12-07T14:45:24;11.25;;;5.38;;
22687;SDS011;11511;51.514;7.080;2022-12-07T14:48:44;13.93;;;6.13;;
22687;SDS011;11511;51.514;7.080;2022-12-07T14:51:52;11.55;;;6.65;;
22687;SDS011;11511;51.514;7.080;2022-12-07T14:54:28;13.57;;;6.68;;
22687;SDS011;11511;51.514;7.080;2022-12-07T15:05:10;15.88;;;9.00;;
22687;SDS011;11511;51.514;7.080;2022-12-07T15:08:30;12.40;;;7.47;;
22687;SDS011;11511;51.514;7.080;2022-12-07T15:11:37;17.35;;;8.13;;
22687;SDS011;11511;51.514;7.080;2022-12-07T15:15:00;10.98;;;7.65;;
22687;SDS011;11511;51.514;7.080;2022-12-07T15:30:07;12.65;;;5.60;;
22687;SDS011;11511;51.514;7.080;2022-12-07T15:32:38;11.30;;;5.60;;
22687;SDS011;11511;51.514;7.080;2022-12-07T15:35:21;15.15;;;6.18;;
22687;SDS011;11511;51.514;7.080;2022-12-07T15:45:50;16.40;;;6.22;;
22687;SDS011;11511;51.514;7.080;2022-12-07T15:58:59;22.02;;;7.28;;
22687;SDS011;11511;51.514;7.080;2022-12-07T16:02:51;19.90;;;7.97;;
22687;SDS011;11511;51.514;7.080;2022-12-07T16:05:19;19.15;;;6.93;;
22687;SDS011;11511;51.514;7.080;2022-12-07T16:08:06;16.15;;;6.25;;
22687;SDS011;11511;51.514;7.080;2022-12-07T16:10:39;15.80;;;6.50;;
22687;SDS011;11511;51.514;7.080;2022-12-07T16:13:16;16.65;;;6.90;;
22687;SDS011;11511;51.514;7.080;2022-12-07T16:16:28;16.05;;;7.15;;
22687;SDS011;11511;51.514;7.080;2022-12-07T16:19:38;13.38;;;7.10;;
22687;SDS011;11511;51.514;7.080;2022-12-07T16:22:12;13.00;;;6.18;;
22687;SDS011;11511;51.514;7.080;2022-12-07T16:24:46;18.08;;;6.38;;
22687;SDS011;11511;51.514;7.080;2022-12-07T16:27:39;19.95;;;6.60;;
22687;SDS011;11511;51.514;7.080;2022-12-07T16:38:15;12.60;;;6.38;;
22687;SDS011;11511;51.514;7.080;2022-12-07T16:41:09;14.00;;;6.20;;
22687;SDS011;11511;51.514;7.080;2022-12-07T16:47:13;16.00;;;6.32;;
22687;SDS011;11511;51.514;7.080;2022-12-07T16:49:47;13.52;;;6.80;;
22687;SDS011;11511;51.514;7.080;2022-12-07T16:52:21;16.10;;;6.15;;
22687;SDS011;11511;51.514;7.080;2022-12-07T16:54:55;14.75;;;6.50;;
22687;SDS011;11511;51.514;7.080;2022-12-07T16:57:33;14.45;;;6.63;;
22687;SDS011;11511;51.514;7.080;2022-12-07T17:00:48;17.98;;;6.53;;
22687;SDS011;11511;51.514;7.080;2022-12-07T17:03:18;13.43;;;6.43;;
22687;SDS011;11511;51.514;7.080;2022-12-07T17:06:23;11.68;;;6.00;;
22687;SDS011;11511;51.514;7.080;2022-12-07T17:09:01;14.25;;;5.72;;
22687;SDS011;11511;51.514;7.080;2022-12-07T17:14:12;15.73;;;5.00;;
22687;SDS011;11511;51.514;7.080;2022-12-07T17:17:07;14.32;;;5.63;;
22687;SDS011;11511;51.514;7.080;2022-12-07T17:19:36;12.48;;;5.53;;
22687;SDS011;11511;51.514;7.080;2022-12-07T17:22:31;11.13;;;5.28;;
22687;SDS011;11511;51.514;7.080;2022-12-07T17:25:28;11.00;;;4.22;;
22687;SDS011;11511;51.514;7.080;2022-12-07T17:29:04;7.03;;;3.95;;
22687;SDS011;11511;51.514;7.080;2022-12-07T17:31:43;7.90;;;4.53;;
22687;SDS011;11511;51.514;7.080;2022-12-07T17:34:14;10.45;;;4.50;;
22687;SDS011;11511;51.514;7.080;2022-12-07T17:38:00;9.15;;;4.55;;
22687;SDS011;11511;51.514;7.080;2022-12-07T17:40:54;13.88;;;5.75;;
22687;SDS011;11511;51.514;7.080;2022-12-07T17:43:22;14.52;;;6.50;;
22687;SDS011;11511;51.514;7.080;2022-12-07T17:45:54;14.98;;;6.22;;
22687;SDS011;11511;51.514;7.080;2022-12-07T17:48:21;13.60;;;6.32;;
22687;SDS011;11511;51.514;7.080;2022-12-07T17:50:58;18.38;;;6.15;;
22687;SDS011;11511;51.514;7.080;2022-12-07T17:54:12;11.65;;;6.18;;
22687;SDS011;11511;51.514;7.080;2022-12-07T17:56:43;12.90;;;6.30;;
22687;SDS011;11511;51.514;7.080;2022-12-07T17:59:55;11.13;;;6.45;;
22687;SDS011;11511;51.514;7.080;2022-12-07T18:03:55;11.85;;;6.68;;
22687;SDS011;11511;51.514;7.080;2022-12-07T18:07:36;16.15;;;8.00;;
22687;SDS011;11511;51.514;7.080;2022-12-07T18:10:21;18.65;;;8.52;;
22687;SDS011;11511;51.514;7.080;2022-12-07T18:13:11;14.88;;;8.35;;
22687;SDS011;11511;51.514;7.080;2022-12-07T18:16:16;14.60;;;7.57;;
22687;SDS011;11511;51.514;7.080;2022-12-07T18:19:02;16.17;;;8.75;;
22687;SDS011;11511;51.514;7.080;2022-12-07T18:37:16;15.98;;;7.68;;
22687;SDS011;11511;51.514;7.080;2022-12-07T18:39:44;11.15;;;7.32;;
22687;SDS011;11511;51.514;7.080;2022-12-07T18:42:17;15.70;;;7.90;;
22687;SDS011;11511;51.514;7.080;2022-12-07T18:44:48;14.07;;;7.38;;
22687;SDS011;11511;51.514;7.080;2022-12-07T18:51:48;16.02;;;8.10;;
22687;SDS011;11511;51.514;7.080;2022-12-07T18:54:57;12.65;;;7.55;;
22687;SDS011;11511;51.514;7.080;2022-12-07T18:57:53;13.27;;;7.25;;
22687;SDS011;11511;51.514;7.080;2022-12-07T19:00:23;14.25;;;7.05;;
22687;SDS011;11511;51.514;7.080;2022-12-07T19:02:54;13.15;;;7.50;;
22687;SDS011;11511;51.514;7.080;2022-12-07T19:06:04;12.80;;;8.23;;
22687;SDS011;11511;51.514;7.080;2022-12-07T19:08:37;12.32;;;7.45;;
22687;SDS011;11511;51.514;7.080;2022-12-07T19:11:19;16.02;;;7.65;;
22687;SDS011;11511;51.514;7.080;2022-12-07T19:15:10;15.25;;;7.68;;
22687;SDS011;11511;51.514;7.080;2022-12-07T19:17:41;14.98;;;8.45;;
22687;SDS011;11511;51.514;7.080;2022-12-07T19:20:08;13.90;;;8.40;;
22687;SDS011;11511;51.514;7.080;2022-12-07T19:22:39;14.10;;;8.60;;
22687;SDS011;11511;51.514;7.080;2022-12-07T19:25:08;15.40;;;8.43;;
22687;SDS011;11511;51.514;7.080;2022-12-07T19:27:51;17.42;;;8.18;;
22687;SDS011;11511;51.514;7.080;2022-12-07T19:30:17;12.55;;;8.00;;
22687;SDS011;11511;51.514;7.080;2022-12-07T19:32:44;12.45;;;8.27;;
22687;SDS011;11511;51.514;7.080;2022-12-07T19:35:20;14.02;;;7.95;;
22687;SDS011;11511;51.514;7.080;2022-12-07T19:37:47;12.98;;;8.85;;
22687;SDS011;11511;51.514;7.080;2022-12-07T19:40:13;13.75;;;8.50;;
22687;SDS011;11511;51.514;7.080;2022-12-07T19:42:40;15.23;;;8.85;;
22687;SDS011;11511;51.514;7.080;2022-12-07T19:45:06;15.13;;;9.73;;
22687;SDS011;11511;51.514;7.080;2022-12-07T19:47:34;14.65;;;9.77;;
22687;SDS011;11511;51.514;7.080;2022-12-07T19:50:01;18.42;;;9.95;;
22687;SDS011;11511;51.514;7.080;2022-12-07T19:52:28;15.63;;;10.45;;
22687;SDS011;11511;51.514;7.080;2022-12-07T19:54:55;16.65;;;10.80;;
22687;SDS011;11511;51.514;7.080;2022-12-07T19:57:25;19.08;;;11.25;;
22687;SDS011;11511;51.514;7.080;2022-12-07T19:59:54;20.13;;;11.93;;
22687;SDS011;11511;51.514;7.080;2022-12-07T20:02:22;24.40;;;12.93;;
22687;SDS011;11511;51.514;7.080;2022-12-07T20:04:49;23.95;;;13.30;;
22687;SDS011;11511;51.514;7.080;2022-12-07T20:07:19;20.00;;;13.27;;
22687;SDS011;11511;51.514;7.080;2022-12-07T20:09:46;21.20;;;13.77;;
22687;SDS011;11511;51.514;7.080;2022-12-07T20:12:14;21.45;;;14.02;;
22687;SDS011;11511;51.514;7.080;2022-12-07T20:15:02;17.98;;;13.70;;
22687;SDS011;11511;51.514;7.080;2022-12-07T20:17:29;23.10;;;15.30;;
22687;SDS011;11511;51.514;7.080;2022-12-07T20:19:56;24.50;;;15.02;;
22687;SDS011;11511;51.514;7.080;2022-12-07T20:22:24;21.40;;;16.80;;
22687;SDS011;11511;51.514;7.080;2022-12-07T20:24:50;26.42;;;16.98;;
22687;SDS011;11511;51.514;7.080;2022-12-07T20:27:17;29.38;;;16.52;;
22687;SDS011;11511;51.514;7.080;2022-12-07T20:29:43;27.42;;;17.38;;
22687;SDS011;11511;51.514;7.080;2022-12-07T20:32:10;29.55;;;18.23;;
22687;SDS011;11511;51.514;7.080;2022-12-07T20:34:38;28.48;;;18.58;;
22687;SDS011;11511;51.514;7.080;2022-12-07T20:37:05;26.17;;;18.70;;
22687;SDS011;11511;51.514;7.080;2022-12-07T20:39:34;27.80;;;18.60;;
22687;SDS011;11511;51.514;7.080;2022-12-07T20:42:01;29.02;;;18.63;;
22687;SDS011;11511;51.514;7.080;2022-12-07T20:44:49;29.90;;;20.15;;
22687;SDS011;11511;51.514;7.080;2022-12-07T20:47:18;31.02;;;20.10;;
22687;SDS011;11511;51.514;7.080;2022-12-07T20:49:46;30.73;;;19.48;;
22687;SDS011;11511;51.514;7.080;2022-12-07T20:52:13;30.10;;;18.98;;
22687;SDS011;11511;51.514;7.080;2022-12-07T20:54:39;32.00;;;20.08;;
22687;SDS011;11511;51.514;7.080;2022-12-07T20:57:06;30.17;;;19.42;;
22687;SDS011;11511;51.514;7.080;2022-12-07T20:59:33;30.67;;;20.88;;
22687;SDS011;11511;51.514;7.080;2022-12-07T21:02:02;30.50;;;20.50;;
22687;SDS011;11511;51.514;7.080;2022-12-07T21:04:30;31.73;;;20.98;;
22687;SDS011;11511;51.514;7.080;2022-12-07T21:06:56;35.38;;;20.33;;
22687;SDS011;11511;51.514;7.080;2022-12-07T21:09:23;34.88;;;21.38;;
22687;SDS011;11511;51.514;7.080;2022-12-07T21:11:54;34.13;;;22.20;;
22687;SDS011;11511;51.514;7.080;2022-12-07T21:14:21;33.65;;;21.65;;
22687;SDS011;11511;51.514;7.080;2022-12-07T21:16:48;30.55;;;21.40;;
22687;SDS011;11511;51.514;7.080;2022-12-07T21:19:15;33.30;;;22.08;;
22687;SDS011;11511;51.514;7.080;2022-12-07T21:21:42;32.35;;;20.60;;
22687;SDS011;11511;51.514;7.080;2022-12-07T21:24:16;33.15;;;21.27;;
22687;SDS011;11511;51.514;7.080;2022-12-07T21:26:42;32.90;;;21.42;;
22687;SDS011;11511;51.514;7.080;2022-12-07T21:29:10;34.00;;;20.90;;
22687;SDS011;11511;51.514;7.080;2022-12-07T21:31:40;31.60;;;21.15;;
22687;SDS011;11511;51.514;7.080;2022-12-07T21:34:07;31.95;;;21.75;;
22687;SDS011;11511;51.514;7.080;2022-12-07T21:36:34;30.73;;;21.50;;
22687;SDS011;11511;51.514;7.080;2022-12-07T21:39:03;32.58;;;21.98;;
22687;SDS011;11511;51.514;7.080;2022-12-07T21:41:31;30.00;;;20.92;;
22687;SDS011;11511;51.514;7.080;2022-12-07T21:44:07;33.33;;;22.75;;
22687;SDS011;11511;51.514;7.080;2022-12-07T21:46:37;31.38;;;23.10;;
22687;SDS011;11511;51.514;7.080;2022-12-07T21:49:09;29.80;;;22.88;;
22687;SDS011;11511;51.514;7.080;2022-12-07T21:51:39;32.30;;;22.67;;